Millers Tavrn, Virginia
Current Conditions -  °F | °C
As of 3:15 PM on Wednesday 26 Nov 2014 (Local Time) from KXSA Reporting Station
Drizzle Drizzle  
Wind Chill: 31°   Ceiling: 700
Heat Index: 38°   Visibility: 10mi
Dew Point: 35°   Wind: 13mph
Humidity: 86%   Direction: 300°WNW
Pressure: 29.89"   Gusts: 17mph
Location:  37.8283°N, 76.9455°W
Report Text: KXSA 262015Z AUTO 30011G15KT 270V330 10SM DZ OVC007 04/02 A2989 RMK AO2 T00360015
Loading
Personal Weather Stations






























Interactive Weather Map New forecast layout! Learn more

10-Day Weather Forecast

Advertisements
Track Severe Weather on mobile